Thunder radar more information blitzortung!


Radar de pluja more information rain snow radar


Visita la nostra xarxa de llocs de meteo:

Template documentation
and downloads

And another site



No particular awareness of the weather is required.    There are no Weather-warnings

Pagina Historial Weather Underground text

Diari Resum Octubre 18, 2017 Unitats:  Mètric    Imperial   Tant
« Previous Dia
SegĂźent Dia »
Diari Setmana Mensual Anual Personalitzada
  Maxima: Minima: Media:
Temperatura: 23.1 °C 13.9 °C 18 °C
Punt de rosada: 16.2 °C 10.4 °C 13.9 °C
Humitat: 95 % 59 % 78 %
Wind Speed: 18.5 km/h 0.0 km/h 6.3 km/h
RĂ fegues de vent: 18.5 km/h - -
Vent:- - East
Pression baro: 1017.8 hPa 1010.0 hPa -
Precipitacions: 11.7 mm    
Historical Graphs
 
 
Dades de taula per Octubre 18, 2017
Temps Temperatura Punt de rosada Pression baro Vent Wind Speed RĂ fegues de vent Humitat Rainfall Rate (Hourly)
00:05 16.1 °C 13.0 °C 1017.8 hPa NE 1.6 km/h 4.8 km/h 82 % 0.0 mm
00:15 16.1 °C 13.0 °C 1017.8 hPa Calm   1.6 km/h 82 % 0.0 mm
00:25 16.2 °C 13.1 °C 1017.8 hPa Calm     82 % 0.0 mm
00:35 16.2 °C 13.1 °C 1016.8 hPa Calm     82 % 0.0 mm
00:45 16.2 °C 13.1 °C 1016.8 hPa Calm     82 % 0.0 mm
00:55 16.1 °C 13.0 °C 1016.8 hPa WNW 1.6 km/h 1.6 km/h 82 % 0.0 mm
01:10 16.1 °C 13.0 °C 1015.8 hPa WNW 1.6 km/h 1.6 km/h 82 % 0.0 mm
01:20 16.1 °C 13.0 °C 1015.8 hPa Calm   1.6 km/h 82 % 0.0 mm
01:30 15.9 °C 12.8 °C 1015.8 hPa Calm   3.2 km/h 82 % 0.0 mm
01:40 15.8 °C 12.7 °C 1015.8 hPa Calm     82 % 0.0 mm
01:50 15.9 °C 12.8 °C 1015.8 hPa South 1.6 km/h 1.6 km/h 82 % 0.0 mm
02:00 15.9 °C 13.0 °C 1015.8 hPa Calm     83 % 0.0 mm
02:10 16.0 °C 13.1 °C 1015.8 hPa Calm     83 % 0.0 mm
02:20 16.0 °C 13.1 °C 1015.8 hPa South 1.6 km/h 1.6 km/h 83 % 0.0 mm
02:30 16.0 °C 13.1 °C 1015.8 hPa SSE 1.6 km/h 1.6 km/h 83 % 0.0 mm
02:40 15.9 °C 13.0 °C 1015.8 hPa East 1.6 km/h 3.2 km/h 83 % 0.0 mm
02:50 15.9 °C 13.0 °C 1015.8 hPa Calm   1.6 km/h 83 % 0.0 mm
03:00 15.8 °C 12.9 °C 1015.8 hPa Calm     83 % 0.0 mm
03:10 15.9 °C 13.2 °C 1015.8 hPa West 1.6 km/h 3.2 km/h 84 % 0.0 mm
03:20 15.8 °C 13.1 °C 1015.8 hPa Calm     84 % 0.0 mm
03:30 15.6 °C 12.9 °C 1015.8 hPa ENE 3.2 km/h 3.2 km/h 84 % 0.0 mm
03:40 15.4 °C 12.7 °C 1015.8 hPa SSW 1.6 km/h 3.2 km/h 84 % 0.0 mm
03:50 15.5 °C 12.8 °C 1015.8 hPa Calm   1.6 km/h 84 % 0.0 mm
04:00 15.8 °C 13.1 °C 1015.8 hPa Calm   3.2 km/h 84 % 0.0 mm
04:10 16.0 °C 13.5 °C 1015.8 hPa ENE 1.6 km/h 3.2 km/h 85 % 0.0 mm
04:20 16.4 °C 13.7 °C 1015.8 hPa NE 3.2 km/h 4.8 km/h 84 % 0.0 mm
04:30 16.8 °C 14.1 °C 1015.8 hPa NE 1.6 km/h 3.2 km/h 84 % 0.0 mm
04:40 17.3 °C 14.2 °C 1015.8 hPa NE 1.6 km/h 3.2 km/h 82 % 0.0 mm
04:50 17.9 °C 14.6 °C 1015.8 hPa Calm   1.6 km/h 81 % 0.0 mm
05:00 18.3 °C 14.6 °C 1015.8 hPa East 1.6 km/h 3.2 km/h 79 % 0.0 mm
05:10 18.1 °C 14.2 °C 1015.8 hPa NE 1.6 km/h 3.2 km/h 78 % 0.0 mm
05:20 18.0 °C 14.1 °C 1015.8 hPa NNE 4.8 km/h 6.4 km/h 78 % 0.0 mm
05:30 18.1 °C 14.2 °C 1014.8 hPa NE 3.2 km/h 6.4 km/h 78 % 0.0 mm
10:33 18.3 °C 14.4 °C 1014.8 hPa East 4.7 km/h 4.7 km/h 78 % 0.0 mm
10:34 18.3 °C 14.4 °C 1014.8 hPa East 4.7 km/h 4.7 km/h 78 % 0.0 mm
10:36 18.4 °C 14.5 °C 1014.8 hPa NE 4.2 km/h 4.2 km/h 78 % 0.0 mm
10:41 18.5 °C 14.6 °C 1015.8 hPa ENE 7.4 km/h 7.4 km/h 78 % 0.0 mm
10:51 19.0 °C 14.7 °C 1015.8 hPa NNE 3.7 km/h 3.7 km/h 76 % 0.0 mm
10:56 19.5 °C 15.2 °C 1014.8 hPa NW 3.7 km/h   76 % 0.0 mm
11:01 20.0 °C 15.2 °C 1014.8 hPa ESE 3.5 km/h 3.5 km/h 74 % 0.0 mm
11:06 20.4 °C 15.6 °C 1014.8 hPa ENE 3.9 km/h 3.9 km/h 74 % 0.0 mm
11:11 20.7 °C 15.7 °C 1015.8 hPa NNE 5.6 km/h 5.6 km/h 73 % 0.0 mm
11:16 20.8 °C 15.6 °C 1015.8 hPa East 5.3 km/h 5.3 km/h 72 % 0.0 mm
11:21 20.9 °C 15.7 °C 1015.8 hPa NNE 5.6 km/h 5.6 km/h 72 % 0.0 mm
11:26 21.0 °C 15.6 °C 1015.8 hPa ESE 6.9 km/h 6.9 km/h 71 % 0.0 mm
11:27 20.9 °C 15.4 °C 1015.8 hPa ENE 7.4 km/h 7.4 km/h 71 % 0.0 mm
11:32 21.0 °C 15.8 °C 1015.8 hPa ENE 7.4 km/h 7.4 km/h 72 % 0.0 mm
11:37 21.0 °C 15.6 °C 1015.8 hPa ESE 3.7 km/h 3.7 km/h 71 % 0.0 mm
11:42 21.0 °C 15.3 °C 1015.8 hPa East 9.3 km/h 9.3 km/h 70 % 0.0 mm
11:47 21.1 °C 15.6 °C 1015.8 hPa ENE 7.9 km/h 7.9 km/h 71 % 0.0 mm
11:52 21.2 °C 15.7 °C 1015.8 hPa ENE 7.4 km/h 7.4 km/h 71 % 0.0 mm
11:57 21.3 °C 15.8 °C 1014.8 hPa East 7.4 km/h 7.4 km/h 71 % 0.0 mm
12:02 21.4 °C 15.7 °C 1014.8 hPa ENE 3.7 km/h 3.7 km/h 70 % 0.0 mm
12:07 21.2 °C 15.5 °C 1014.8 hPa ESE 11.1 km/h 11.1 km/h 70 % 0.0 mm
12:12 21.7 °C 15.8 °C 1014.8 hPa ESE 9.3 km/h 9.3 km/h 69 % 0.0 mm
12:17 21.8 °C 15.8 °C 1014.8 hPa ESE 9.7 km/h 9.7 km/h 69 % 0.0 mm
12:22 21.9 °C 16.2 °C 1014.8 hPa East 7.4 km/h 7.4 km/h 70 % 0.0 mm
12:27 22.4 °C 15.9 °C 1014.8 hPa ESE 9.3 km/h 9.3 km/h 67 % 0.0 mm
12:32 22.5 °C 15.8 °C 1014.8 hPa ESE 11.1 km/h 11.1 km/h 66 % 0.0 mm
12:37 22.3 °C 15.4 °C 1014.8 hPa ENE 14.8 km/h 14.8 km/h 65 % 0.0 mm
12:42 22.3 °C 15.2 °C 1014.8 hPa ESE 13.0 km/h 13.0 km/h 64 % 0.0 mm
12:47 22.6 °C 15.4 °C 1014.8 hPa ESE 14.8 km/h 14.8 km/h 64 % 0.0 mm
12:52 22.8 °C 15.4 °C 1014.8 hPa ENE 13.0 km/h 13.0 km/h 63 % 0.0 mm
12:57 22.7 °C 15.1 °C 1013.8 hPa East 18.5 km/h 18.5 km/h 62 % 0.0 mm
13:02 22.7 °C 15.1 °C 1013.8 hPa ESE 16.7 km/h 16.7 km/h 62 % 0.0 mm
13:07 22.7 °C 14.8 °C 1013.8 hPa ESE 11.9 km/h 11.9 km/h 61 % 0.0 mm
13:12 23.1 °C 15.2 °C 1012.8 hPa ESE 14.8 km/h 14.8 km/h 61 % 0.0 mm
13:17 22.7 °C 14.6 °C 1012.8 hPa ESE 13.0 km/h 13.0 km/h 60 % 0.0 mm
13:22 22.5 °C 14.3 °C 1012.8 hPa ESE 7.4 km/h 7.4 km/h 60 % 0.0 mm
13:27 22.6 °C 14.4 °C 1013.8 hPa East 16.7 km/h 16.7 km/h 60 % 0.0 mm
13:32 22.6 °C 14.4 °C 1013.8 hPa East 14.8 km/h 14.8 km/h 60 % 0.0 mm
13:37 22.5 °C 14.3 °C 1013.8 hPa SE 13.7 km/h 13.7 km/h 60 % 0.0 mm
13:42 22.6 °C 14.7 °C 1014.8 hPa ESE 8.7 km/h 8.7 km/h 61 % 0.0 mm
13:47 22.5 °C 14.3 °C 1014.8 hPa ENE 16.7 km/h 16.7 km/h 60 % 0.0 mm
13:52 22.4 °C 14.0 °C 1014.8 hPa SE 14.8 km/h 14.8 km/h 59 % 0.0 mm
13:57 22.4 °C 14.0 °C 1014.8 hPa ESE 9.3 km/h 9.3 km/h 59 % 0.0 mm
14:02 22.2 °C 13.8 °C 1014.8 hPa ESE 13.0 km/h 13.0 km/h 59 % 0.0 mm
14:07 22.1 °C 13.7 °C 1014.8 hPa ESE 9.3 km/h 9.3 km/h 59 % 0.0 mm
14:12 22.1 °C 13.7 °C 1013.8 hPa ESE 9.3 km/h 9.3 km/h 59 % 0.0 mm
14:17 22.1 °C 13.9 °C 1013.8 hPa ESE 11.1 km/h 11.1 km/h 60 % 0.0 mm
14:22 21.8 °C 13.9 °C 1013.8 hPa ESE 12.2 km/h 12.2 km/h 61 % 0.0 mm
14:27 21.7 °C 14.1 °C 1013.8 hPa ENE 9.3 km/h 9.3 km/h 62 % 0.0 mm
14:32 21.7 °C 14.3 °C 1013.8 hPa ENE 9.5 km/h 9.5 km/h 63 % 0.0 mm
14:37 21.6 °C 14.5 °C 1013.8 hPa ENE 16.7 km/h 16.7 km/h 64 % 0.0 mm
14:42 21.4 °C 14.6 °C 1012.8 hPa ESE 16.7 km/h 16.7 km/h 65 % 0.0 mm
14:47 21.3 °C 14.7 °C 1012.8 hPa ESE 13.0 km/h 13.0 km/h 66 % 0.0 mm
14:52 21.5 °C 14.9 °C 1012.8 hPa NE 9.3 km/h 9.3 km/h 66 % 0.0 mm
14:57 21.5 °C 14.9 °C 1011.7 hPa ESE 9.3 km/h 9.3 km/h 66 % 0.0 mm
15:02 21.5 °C 14.9 °C 1011.7 hPa East 9.3 km/h 9.3 km/h 66 % 0.0 mm
15:07 21.4 °C 14.6 °C 1011.7 hPa SSE 13.0 km/h 13.0 km/h 65 % 0.0 mm
15:12 21.4 °C 14.6 °C 1011.7 hPa ENE 13.0 km/h 13.0 km/h 65 % 0.0 mm
15:17 21.4 °C 14.6 °C 1011.7 hPa ESE 13.0 km/h 13.0 km/h 65 % 0.0 mm
15:22 21.4 °C 14.8 °C 1011.7 hPa East 13.0 km/h 13.0 km/h 66 % 0.0 mm
15:27 21.4 °C 14.8 °C 1011.7 hPa SE 11.1 km/h 11.1 km/h 66 % 0.0 mm
15:32 21.3 °C 14.4 °C 1011.7 hPa ESE 12.2 km/h 12.2 km/h 65 % 0.0 mm
15:37 21.2 °C 14.8 °C 1011.7 hPa SE 13.0 km/h 13.0 km/h 67 % 0.0 mm
15:42 21.2 °C 14.8 °C 1011.7 hPa ENE 7.4 km/h 7.4 km/h 67 % 0.0 mm
15:47 21.1 °C 14.7 °C 1011.7 hPa East 9.3 km/h 9.3 km/h 67 % 0.0 mm
15:52 21.1 °C 14.7 °C 1011.7 hPa East 11.1 km/h 11.1 km/h 67 % 0.0 mm
15:57 21.0 °C 14.9 °C 1011.7 hPa ESE 7.4 km/h 7.4 km/h 68 % 0.0 mm
16:02 21.0 °C 15.1 °C 1011.7 hPa ENE 11.1 km/h 11.1 km/h 69 % 0.0 mm
16:07 20.8 °C 15.1 °C 1011.7 hPa ESE 11.1 km/h 11.1 km/h 70 % 0.0 mm
16:12 20.5 °C 14.8 °C 1011.7 hPa East 14.8 km/h 14.8 km/h 70 % 0.0 mm
16:17 20.5 °C 15.1 °C 1011.7 hPa ESE 15.6 km/h 15.6 km/h 71 % 0.0 mm
16:22 20.5 °C 15.3 °C 1011.7 hPa ESE 9.3 km/h 9.3 km/h 72 % 0.0 mm
16:27 20.5 °C 15.3 °C 1011.7 hPa ESE 11.1 km/h 11.1 km/h 72 % 0.0 mm
16:32 20.5 °C 15.5 °C 1011.7 hPa SE 5.6 km/h 5.6 km/h 73 % 0.0 mm
16:37 20.4 °C 15.2 °C 1011.7 hPa ESE 14.8 km/h 14.8 km/h 72 % 0.0 mm
16:42 20.3 °C 15.1 °C 1011.7 hPa ESE 16.7 km/h 16.7 km/h 72 % 0.0 mm
16:43 20.3 °C 15.1 °C 1011.7 hPa SE 16.7 km/h 16.7 km/h 72 % 0.0 mm
16:48 20.2 °C 15.0 °C 1011.7 hPa ESE 9.3 km/h 9.3 km/h 72 % 0.0 mm
16:53 20.1 °C 15.1 °C 1011.7 hPa ENE 9.3 km/h 9.3 km/h 73 % 0.0 mm
16:58 20.0 °C 15.0 °C 1011.7 hPa ESE 9.0 km/h 9.0 km/h 73 % 0.0 mm
17:03 20.0 °C 15.2 °C 1011.7 hPa ENE 13.0 km/h 13.0 km/h 74 % 0.0 mm
17:08 20.1 °C 15.3 °C 1011.7 hPa ESE 6.1 km/h 6.1 km/h 74 % 0.0 mm
17:13 20.1 °C 15.3 °C 1011.7 hPa East 8.7 km/h 8.7 km/h 74 % 0.0 mm
17:18 20.0 °C 15.4 °C 1011.7 hPa ESE 9.3 km/h 9.3 km/h 75 % 0.0 mm
17:23 19.7 °C 15.3 °C 1011.7 hPa ENE 9.3 km/h 9.3 km/h 76 % 0.0 mm
17:28 19.5 °C 15.2 °C 1010.7 hPa East 7.4 km/h 7.4 km/h 76 % 0.0 mm
17:33 19.3 °C 15.2 °C 1010.7 hPa NW 8.7 km/h 8.7 km/h 77 % 0.0 mm
17:38 19.2 °C 15.1 °C 1010.7 hPa ENE 4.7 km/h 4.7 km/h 77 % 0.0 mm
17:43 19.1 °C 14.9 °C 1010.0 hPa NNE 9.3 km/h 9.3 km/h 77 % 0.0 mm
17:48 19.1 °C 14.9 °C 1010.0 hPa ENE 9.3 km/h 9.3 km/h 77 % 0.0 mm
17:53 19.0 °C 14.9 °C 1010.0 hPa NE 6.9 km/h 6.9 km/h 77 % 0.0 mm
17:58 19.0 °C 14.9 °C 1010.7 hPa NNE 8.7 km/h 8.7 km/h 77 % 0.0 mm
18:03 19.0 °C 14.9 °C 1010.7 hPa NNE 7.4 km/h 7.4 km/h 77 % 0.0 mm
18:08 19.0 °C 14.9 °C 1010.7 hPa ENE 7.4 km/h 7.4 km/h 77 % 0.0 mm
18:13 19.1 °C 14.9 °C 1010.0 hPa East 6.9 km/h 6.9 km/h 77 % 0.0 mm
18:18 19.0 °C 14.9 °C 1010.0 hPa NNE 10.0 km/h 10.0 km/h 77 % 0.0 mm
18:23 19.0 °C 14.9 °C 1010.0 hPa East 2.6 km/h   77 % 0.0 mm
18:28 19.1 °C 15.2 °C 1010.0 hPa SE 7.4 km/h 7.4 km/h 78 % 0.0 mm
18:33 19.1 °C 15.4 °C 1010.0 hPa ENE 5.0 km/h 5.0 km/h 79 % 0.0 mm
18:38 19.1 °C 15.4 °C 1010.0 hPa SE 5.8 km/h 5.8 km/h 79 % 0.0 mm
18:43 19.1 °C 15.6 °C 1010.7 hPa SW 5.6 km/h 6.1 km/h 80 % 0.0 mm
18:48 17.8 °C 13.7 °C 1010.7 hPa SSW 16.7 km/h 16.7 km/h 77 % 0.0 mm
18:53 16.5 °C 12.3 °C 1010.7 hPa WSW 14.8 km/h 14.8 km/h 76 % 0.0 mm
18:58 15.2 °C 11.2 °C 1011.7 hPa SW 13.0 km/h 13.0 km/h 77 % 1.0 mm
19:03 14.5 °C 10.7 °C 1011.7 hPa SSW 9.5 km/h 9.5 km/h 78 % 3.3 mm
19:08 14.2 °C 10.4 °C 1011.7 hPa WSW 7.4 km/h 7.4 km/h 78 % 3.3 mm
19:13 14.0 °C 10.4 °C 1012.8 hPa SW 3.9 km/h 3.9 km/h 79 % 3.3 mm
19:18 14.0 °C 10.6 °C 1012.8 hPa West 3.7 km/h   80 % 3.3 mm
19:23 14.0 °C 10.8 °C 1012.8 hPa NW 3.7 km/h   81 % 3.3 mm
19:28 14.0 °C 11.0 °C 1012.8 hPa WSW 3.5 km/h 3.5 km/h 82 % 6.3 mm
19:33 14.1 °C 11.1 °C 1012.8 hPa WNW 1.9 km/h   82 % 6.3 mm
19:38 14.2 °C 11.3 °C 1012.8 hPa ENE 4.2 km/h 4.2 km/h 83 % 7.4 mm
19:43 14.0 °C 11.2 °C 1011.7 hPa NNE 5.6 km/h 5.6 km/h 83 % 7.4 mm
19:48 14.0 °C 11.3 °C 1011.7 hPa NE 3.7 km/h 3.7 km/h 84 % 7.4 mm
19:53 14.0 °C 11.3 °C 1011.7 hPa Calm     84 % 7.4 mm
19:58 14.0 °C 11.5 °C 1012.8 hPa Calm     85 % 6.3 mm
20:03 14.1 °C 11.6 °C 1012.8 hPa NE 3.7 km/h 3.7 km/h 85 % 4.1 mm
20:08 14.1 °C 11.6 °C 1012.8 hPa NNE 3.7 km/h 3.7 km/h 85 % 4.1 mm
20:13 13.9 °C 11.4 °C 1012.8 hPa NNE 9.3 km/h 9.3 km/h 85 % 4.1 mm
20:18 13.9 °C 11.6 °C 1012.8 hPa NNE 5.6 km/h 5.6 km/h 86 % 4.1 mm
20:23 13.9 °C 11.6 °C 1012.8 hPa NNE 9.3 km/h 9.3 km/h 86 % 4.1 mm
20:28 13.9 °C 11.6 °C 1012.8 hPa NNE 9.3 km/h 9.3 km/h 86 % 1.0 mm
20:33 13.9 °C 11.8 °C 1012.8 hPa NNE 5.3 km/h 5.3 km/h 87 % 1.0 mm
20:38 14.0 °C 11.9 °C 1012.8 hPa ENE 7.4 km/h 7.4 km/h 87 % 0.0 mm
20:43 13.9 °C 11.8 °C 1010.7 hPa NNE 9.3 km/h 9.3 km/h 87 % 0.0 mm
20:48 14.0 °C 12.1 °C 1010.7 hPa NNE 4.2 km/h 4.2 km/h 88 % 0.0 mm
20:53 14.1 °C 12.2 °C 1010.7 hPa Calm     88 % 0.0 mm
20:58 14.2 °C 12.4 °C 1011.7 hPa ENE 3.7 km/h 3.7 km/h 89 % 0.0 mm
21:03 14.2 °C 12.4 °C 1011.7 hPa ENE 5.6 km/h 5.6 km/h 89 % 0.0 mm
21:08 14.2 °C 12.4 °C 1011.7 hPa ENE 3.7 km/h 3.7 km/h 89 % 0.0 mm
21:13 14.2 °C 12.4 °C 1011.7 hPa NE 3.7 km/h 3.7 km/h 89 % 0.0 mm
21:18 14.3 °C 12.5 °C 1011.7 hPa NNE 2.3 km/h 2.3 km/h 89 % 4.3 mm
21:23 14.4 °C 12.8 °C 1011.7 hPa ENE 1.9 km/h   90 % 4.3 mm
21:28 14.4 °C 12.8 °C 1011.7 hPa NNE 1.9 km/h   90 % 4.3 mm
21:33 14.4 °C 12.8 °C 1011.7 hPa Calm     90 % 4.3 mm
21:38 14.5 °C 12.9 °C 1011.7 hPa Calm     90 % 4.3 mm
21:43 14.5 °C 12.9 °C 1011.7 hPa NNE 2.6 km/h   90 % 4.3 mm
21:48 14.5 °C 12.9 °C 1011.7 hPa NNE 3.7 km/h 3.7 km/h 90 % 4.3 mm
21:53 14.5 °C 12.9 °C 1011.7 hPa NNE 3.7 km/h 3.7 km/h 90 % 4.3 mm
21:58 14.5 °C 12.9 °C 1011.7 hPa NNE 5.6 km/h 5.6 km/h 90 % 4.3 mm
22:03 14.5 °C 12.9 °C 1011.7 hPa Calm     90 % 4.3 mm
22:08 14.5 °C 13.1 °C 1011.7 hPa Calm     91 % 4.3 mm
22:13 14.5 °C 13.1 °C 1011.7 hPa Calm     91 % 4.3 mm
22:18 14.6 °C 13.2 °C 1011.7 hPa ENE 3.7 km/h   91 % 0.0 mm
22:23 14.5 °C 13.1 °C 1011.7 hPa Calm     91 % 0.0 mm
22:28 14.6 °C 13.2 °C 1011.7 hPa Calm     91 % 0.0 mm
22:33 14.6 °C 13.2 °C 1011.7 hPa Calm     91 % 0.0 mm
22:38 14.5 °C 13.1 °C 1011.7 hPa Calm     91 % 0.0 mm
22:43 14.5 °C 13.1 °C 1011.7 hPa SW 2.6 km/h   91 % 0.0 mm
22:48 14.6 °C 13.2 °C 1011.7 hPa NNE 1.9 km/h 1.9 km/h 91 % 0.0 mm
22:53 14.6 °C 13.3 °C 1011.7 hPa ENE 3.7 km/h 3.7 km/h 92 % 0.0 mm
22:58 14.5 °C 13.2 °C 1010.7 hPa ESE 3.7 km/h 3.7 km/h 92 % 0.0 mm
23:00 14.8 °C 13.8 °C 1010.0 hPa NE 1.6 km/h 3.2 km/h 94 % 0.0 mm
23:04 14.5 °C 13.2 °C 1010.7 hPa East 2.3 km/h   92 % 0.0 mm
23:09 14.5 °C 13.2 °C 1010.7 hPa East 1.9 km/h 1.9 km/h 92 % 0.0 mm
23:10 14.8 °C 13.8 °C 1010.0 hPa NE 3.2 km/h 4.8 km/h 94 % 0.0 mm
23:14 14.6 °C 13.3 °C 1010.7 hPa Calm     92 % 0.0 mm
23:19 14.6 °C 13.3 °C 1010.7 hPa NNE 3.7 km/h 3.7 km/h 92 % 0.0 mm
23:20 14.8 °C 13.8 °C 1010.0 hPa NE 1.6 km/h 4.8 km/h 94 % 0.0 mm
23:24 14.6 °C 13.3 °C 1010.7 hPa ESE 3.9 km/h 3.9 km/h 92 % 0.0 mm
23:29 14.6 °C 13.3 °C 1011.7 hPa ESE 5.8 km/h 5.8 km/h 92 % 0.0 mm
23:30 14.8 °C 14.0 °C 1010.0 hPa Calm   1.6 km/h 95 % 0.0 mm
23:34 14.6 °C 13.3 °C 1011.7 hPa Calm     92 % 0.0 mm
23:39 14.6 °C 13.3 °C 1011.7 hPa Calm     92 % 0.0 mm
23:40 14.9 °C 14.1 °C 1010.0 hPa Calm     95 % 1.0 mm
23:44 14.6 °C 13.3 °C 1010.7 hPa Calm     92 % 0.0 mm
23:49 14.6 °C 13.3 °C 1010.7 hPa West 3.9 km/h 3.9 km/h 92 % 0.0 mm
23:50 14.9 °C 14.1 °C 1010.0 hPa NNE 3.2 km/h 6.4 km/h 95 % 1.0 mm
23:54 14.6 °C 13.2 °C 1010.7 hPa Calm     91 % 0.0 mm
23:59 14.6 °C 13.3 °C 1011.7 hPa Calm     92 % 0.0 mm
Meteo Sesrovires
Elogis d' Weather Underground - 3.5 mb

Guio original per  Jim McMurry - jmcmurry@mwt.net Adaptat per a la plantilla per  Wim van der Kuil - Leuven-Template.eu

Trobareu la nostra informacio del temps tambe a:

Weather Underground

AWEKAS